createdAt,value
2018-11-02T00:00:50.009Z,13.03
2018-11-02T00:03:18.337Z,10.60
2018-11-02T00:05:46.733Z,13.00
2018-11-02T00:08:15.177Z,12.67
2018-11-02T00:10:43.550Z,12.47
2018-11-02T00:13:11.970Z,13.53
2018-11-02T00:15:40.412Z,11.87
2018-11-02T00:18:08.765Z,13.63
2018-11-02T00:20:37.190Z,12.43
2018-11-02T00:23:05.641Z,11.70
2018-11-02T00:25:33.988Z,11.80
2018-11-02T00:28:02.374Z,10.93
2018-11-02T00:30:30.754Z,10.60
2018-11-02T00:32:59.066Z,14.10
2018-11-02T00:35:27.396Z,11.10
2018-11-02T00:37:55.878Z,13.10
2018-11-02T00:40:24.188Z,13.10
2018-11-02T00:42:52.655Z,14.20
2018-11-02T00:45:21.101Z,14.53
2018-11-02T00:47:49.454Z,14.70
2018-11-02T00:50:17.795Z,11.90
2018-11-02T00:52:46.161Z,12.83
2018-11-02T00:55:14.509Z,13.27
2018-11-02T00:57:42.804Z,10.87
2018-11-02T01:00:12.987Z,12.83
2018-11-02T01:02:41.576Z,12.37
2018-11-02T01:05:10.332Z,11.13
2018-11-02T01:07:38.898Z,10.20
2018-11-02T01:10:07.545Z,11.07
2018-11-02T01:12:36.804Z,11.80
2018-11-02T01:15:06.414Z,12.40
2018-11-02T01:17:35.014Z,11.20
2018-11-02T01:20:03.472Z,10.87
2018-11-02T01:22:31.829Z,13.83
2018-11-02T01:25:00.761Z,13.23
2018-11-02T01:27:29.239Z,11.03
2018-11-02T01:29:57.640Z,11.20
2018-11-02T01:32:25.934Z,11.43
2018-11-02T01:34:54.341Z,12.67
2018-11-02T01:37:22.739Z,11.07
2018-11-02T01:39:51.053Z,11.03
2018-11-02T01:42:19.393Z,11.40
2018-11-02T01:44:47.726Z,11.37
2018-11-02T01:47:16.180Z,10.63
2018-11-02T01:49:44.521Z,13.83
2018-11-02T01:52:13.014Z,13.53
2018-11-02T01:54:41.289Z,10.43
2018-11-02T01:57:09.586Z,11.67
2018-11-02T01:59:37.906Z,11.70
2018-11-02T02:02:06.186Z,12.87
2018-11-02T02:04:34.591Z,11.67
2018-11-02T02:07:02.854Z,10.07
2018-11-02T02:09:31.117Z,12.30
2018-11-02T02:11:59.380Z,10.93
2018-11-02T02:14:27.661Z,11.00
2018-11-02T02:16:55.933Z,11.37
2018-11-02T02:19:24.229Z,11.37
2018-11-02T02:21:52.502Z,10.43
2018-11-02T02:24:20.774Z,10.23
2018-11-02T02:26:49.042Z,13.33
2018-11-02T02:29:17.325Z,11.03
2018-11-02T02:31:45.618Z,10.90
2018-11-02T02:34:13.953Z,11.13
2018-11-02T02:36:42.245Z,11.57
2018-11-02T02:39:11.005Z,11.57
2018-11-02T02:41:39.726Z,9.50
2018-11-02T02:44:08.250Z,12.80
2018-11-02T02:46:36.656Z,9.47
2018-11-02T02:49:05.857Z,11.23
2018-11-02T02:51:34.114Z,10.20
2018-11-02T02:54:02.381Z,10.60
2018-11-02T02:56:30.645Z,10.47
2018-11-02T02:58:58.949Z,9.53
2018-11-02T03:01:27.233Z,9.13
2018-11-02T03:03:55.982Z,9.70
2018-11-02T03:06:24.269Z,9.87
2018-11-02T03:08:52.587Z,11.37
2018-11-02T03:11:20.911Z,10.93
2018-11-02T03:13:49.169Z,10.80
2018-11-02T03:16:17.444Z,9.20
2018-11-02T03:18:45.865Z,11.10
2018-11-02T03:21:14.133Z,11.23
2018-11-02T03:23:42.393Z,9.50
2018-11-02T03:26:10.669Z,9.63
2018-11-02T03:28:38.962Z,9.53
2018-11-02T03:31:07.244Z,10.87
2018-11-02T03:33:35.519Z,9.37
2018-11-02T03:36:03.811Z,10.20
2018-11-02T03:38:32.104Z,8.80
2018-11-02T03:41:00.358Z,8.43
2018-11-02T03:43:28.658Z,10.20
2018-11-02T03:45:56.914Z,10.07
2018-11-02T03:48:25.209Z,8.77
2018-11-02T03:50:53.573Z,9.80
2018-11-02T03:53:21.830Z,8.77
2018-11-02T03:55:50.237Z,10.60
2018-11-02T03:58:18.502Z,9.13
2018-11-02T04:00:46.796Z,10.03
2018-11-02T04:03:15.058Z,10.60
2018-11-02T04:05:43.345Z,9.10
2018-11-02T04:08:11.606Z,8.87
2018-11-02T04:10:39.861Z,9.97
2018-11-02T04:13:08.170Z,9.00
2018-11-02T04:15:36.436Z,9.77
2018-11-02T04:18:05.279Z,9.33
2018-11-02T04:20:33.566Z,11.37
2018-11-02T04:23:01.852Z,8.93
2018-11-02T04:25:30.110Z,10.37
2018-11-02T04:27:58.438Z,10.80
2018-11-02T04:30:26.727Z,10.67
2018-11-02T04:32:54.994Z,9.67
2018-11-02T04:35:23.309Z,8.70
2018-11-02T04:37:51.569Z,11.17
2018-11-02T04:40:19.821Z,9.17
2018-11-02T04:42:48.081Z,9.07
2018-11-02T04:45:20.581Z,11.00
2018-11-02T04:47:48.905Z,8.37
2018-11-02T04:50:17.191Z,10.80
2018-11-02T04:52:45.449Z,8.87
2018-11-02T04:55:13.721Z,8.33
2018-11-02T04:57:41.995Z,9.10
2018-11-02T05:00:10.663Z,9.57
2018-11-02T05:02:39.119Z,10.03
2018-11-02T05:05:07.354Z,9.83
2018-11-02T05:07:35.611Z,9.73
2018-11-02T05:10:03.934Z,11.73
2018-11-02T05:12:32.229Z,9.80
2018-11-02T05:15:00.507Z,9.60
2018-11-02T05:17:28.785Z,10.67
2018-11-02T05:19:57.085Z,10.03
2018-11-02T05:22:25.386Z,8.73
2018-11-02T05:24:53.664Z,8.60
2018-11-02T05:27:21.945Z,9.70
2018-11-02T05:29:50.209Z,9.23
2018-11-02T05:32:18.464Z,10.67
2018-11-02T05:34:46.757Z,8.87
2018-11-02T05:37:15.028Z,9.70
2018-11-02T05:39:43.340Z,8.67
2018-11-02T05:42:11.627Z,8.00
2018-11-02T05:44:39.904Z,10.13
2018-11-02T05:47:08.218Z,8.27
2018-11-02T05:49:36.485Z,11.30
2018-11-02T05:52:04.786Z,9.73
2018-11-02T05:54:33.097Z,11.87
2018-11-02T05:57:01.485Z,10.80
2018-11-02T05:59:29.737Z,10.07
2018-11-02T06:01:58.009Z,10.60
2018-11-02T06:04:26.283Z,9.27
2018-11-02T06:06:54.549Z,9.40
2018-11-02T06:09:22.875Z,11.07
2018-11-02T06:11:51.138Z,11.73
2018-11-02T06:14:19.421Z,10.87
2018-11-02T06:16:47.774Z,9.63
2018-11-02T06:19:16.336Z,13.93
2018-11-02T06:21:44.809Z,11.87
2018-11-02T06:24:13.122Z,10.40
2018-11-02T06:26:41.403Z,10.80
2018-11-02T06:29:09.978Z,10.90
2018-11-02T06:31:38.295Z,11.97
2018-11-02T06:34:06.895Z,10.57
2018-11-02T06:36:35.497Z,12.13
2018-11-02T06:39:03.965Z,11.03
2018-11-02T06:41:32.250Z,9.13
2018-11-02T06:44:00.529Z,18.67
2018-11-02T06:46:28.857Z,12.10
2018-11-02T06:48:57.129Z,14.93
2018-11-02T06:51:25.425Z,10.57
2018-11-02T06:53:53.698Z,13.73
2018-11-02T06:56:21.978Z,12.20
2018-11-02T06:58:50.241Z,8.70
2018-11-02T07:01:18.543Z,9.87
2018-11-02T07:03:53.346Z,10.27
2018-11-02T07:06:21.781Z,12.13
2018-11-02T07:08:50.057Z,11.90
2018-11-02T07:11:18.342Z,11.70
2018-11-02T07:13:46.609Z,8.97
2018-11-02T07:16:14.996Z,9.30
2018-11-02T07:18:43.346Z,10.27
2018-11-02T07:21:11.666Z,10.97
2018-11-02T07:23:40.088Z,8.60
2018-11-02T07:26:08.436Z,10.57
2018-11-02T07:28:36.713Z,11.63
2018-11-02T07:31:05.384Z,10.47
2018-11-02T07:33:33.674Z,10.73
2018-11-02T07:36:01.935Z,12.00
2018-11-02T07:38:30.305Z,10.27
2018-11-02T07:40:58.613Z,13.00
2018-11-02T07:43:26.946Z,11.10
2018-11-02T07:45:55.202Z,11.47
2018-11-02T07:48:23.593Z,11.47
2018-11-02T07:50:51.851Z,9.63
2018-11-02T07:53:20.475Z,10.60
2018-11-02T07:55:48.760Z,11.67
2018-11-02T07:58:17.139Z,11.50
2018-11-02T08:00:45.466Z,10.97
2018-11-02T08:03:13.817Z,10.00
2018-11-02T08:05:42.133Z,11.57
2018-11-02T08:08:10.549Z,8.90
2018-11-02T08:10:38.897Z,10.80
2018-11-02T08:13:07.184Z,9.83
2018-11-02T08:15:35.498Z,7.53
2018-11-02T08:18:03.793Z,10.37
2018-11-02T08:20:32.114Z,7.20
2018-11-02T08:23:00.445Z,16.97
2018-11-02T08:25:28.745Z,15.47
2018-11-02T08:27:57.090Z,8.60
2018-11-02T08:30:25.369Z,10.30
2018-11-02T08:32:53.624Z,7.37
2018-11-02T08:35:22.022Z,8.90
2018-11-02T08:37:50.381Z,11.03
2018-11-02T08:40:18.748Z,7.33
2018-11-02T08:42:46.996Z,8.40
2018-11-02T08:45:15.379Z,8.87
2018-11-02T08:47:43.632Z,8.67
2018-11-02T08:50:12.641Z,10.30
2018-11-02T08:52:41.282Z,8.53
2018-11-02T08:55:09.811Z,7.60
2018-11-02T08:57:38.528Z,7.03
2018-11-02T09:00:08.841Z,7.23
2018-11-02T09:02:37.113Z,7.87
2018-11-02T09:05:06.028Z,6.67
2018-11-02T09:07:34.308Z,7.73
2018-11-02T09:10:02.588Z,7.67
2018-11-02T09:12:30.913Z,8.47
2018-11-02T09:14:59.193Z,6.13
2018-11-02T09:17:27.451Z,6.47
2018-11-02T09:19:55.773Z,5.87
2018-11-02T09:22:24.073Z,6.07
2018-11-02T09:24:52.361Z,10.10
2018-11-02T09:27:20.718Z,5.80
2018-11-02T09:29:49.003Z,9.23
2018-11-02T09:32:17.292Z,8.13
2018-11-02T09:34:45.583Z,6.10
2018-11-02T09:37:13.853Z,7.63
2018-11-02T09:39:42.254Z,7.77
2018-11-02T09:42:10.554Z,6.47
2018-11-02T09:44:38.921Z,7.13
2018-11-02T09:47:07.196Z,5.90
2018-11-02T09:49:35.576Z,6.47
2018-11-02T09:52:04.073Z,6.63
2018-11-02T09:54:32.342Z,7.50
2018-11-02T09:57:00.618Z,7.77
2018-11-02T09:59:28.916Z,5.67
2018-11-02T10:01:57.331Z,7.60
2018-11-02T10:04:25.569Z,12.43
2018-11-02T10:06:53.895Z,7.83
2018-11-02T10:09:22.349Z,9.13
2018-11-02T10:11:50.506Z,7.03
2018-11-02T10:14:18.800Z,8.53
2018-11-02T10:16:47.108Z,4.83
2018-11-02T10:19:15.393Z,5.27
2018-11-02T10:21:43.710Z,6.93
2018-11-02T10:24:12.017Z,5.73
2018-11-02T10:26:40.316Z,8.63
2018-11-02T10:29:08.656Z,4.93
2018-11-02T10:31:36.938Z,5.03
2018-11-02T10:34:05.266Z,4.37
2018-11-02T10:36:33.949Z,4.20
2018-11-02T10:39:02.275Z,4.70
2018-11-02T10:41:32.695Z,5.60
2018-11-02T10:44:01.009Z,5.90
2018-11-02T10:46:29.318Z,11.20
2018-11-02T10:48:57.605Z,5.57
2018-11-02T10:51:25.891Z,8.20
2018-11-02T10:53:54.162Z,5.50
2018-11-02T10:56:22.620Z,7.17
2018-11-02T10:58:50.859Z,5.77
2018-11-02T11:01:24.681Z,9.37
2018-11-02T11:03:52.935Z,7.57
2018-11-02T11:06:21.245Z,5.00
2018-11-02T11:08:49.520Z,8.03
2018-11-02T11:11:17.862Z,4.53
2018-11-02T11:13:46.543Z,6.70
2018-11-02T11:16:14.454Z,5.13
2018-11-02T11:18:42.993Z,5.90
2018-11-02T11:21:11.295Z,6.67
2018-11-02T11:23:39.580Z,7.30
2018-11-02T11:26:07.924Z,6.07
2018-11-02T11:28:36.277Z,6.17
2018-11-02T11:31:04.807Z,5.43
2018-11-02T11:33:33.242Z,5.47
2018-11-02T11:36:01.537Z,6.00
2018-11-02T11:38:29.826Z,6.73
2018-11-02T11:40:58.136Z,4.90
2018-11-02T11:43:26.485Z,6.50
2018-11-02T11:45:54.774Z,6.10
2018-11-02T11:48:23.069Z,8.07
2018-11-02T11:50:51.360Z,3.73
2018-11-02T11:53:19.649Z,4.63
2018-11-02T11:55:47.908Z,4.37
2018-11-02T11:58:16.323Z,6.93
2018-11-02T12:00:44.678Z,7.30
2018-11-02T12:03:12.918Z,4.20
2018-11-02T12:05:41.205Z,4.50
2018-11-02T12:08:09.505Z,4.93
2018-11-02T12:10:37.773Z,4.40
2018-11-02T12:13:06.099Z,4.50
2018-11-02T12:15:34.379Z,6.03
2018-11-02T12:18:02.666Z,6.47
2018-11-02T12:20:30.959Z,6.50
2018-11-02T12:23:03.242Z,6.13
2018-11-02T12:25:31.726Z,5.60
2018-11-02T12:28:00.045Z,4.97
2018-11-02T12:30:28.313Z,4.97
2018-11-02T12:32:56.604Z,5.00
2018-11-02T12:35:24.911Z,5.27
2018-11-02T12:37:53.213Z,6.93
2018-11-02T12:40:22.663Z,5.73
2018-11-02T12:42:51.890Z,4.57
2018-11-02T12:45:21.081Z,5.00
2018-11-02T12:47:50.557Z,5.13
2018-11-02T12:50:21.421Z,4.87
2018-11-02T12:52:50.747Z,6.57
2018-11-02T12:55:19.669Z,6.57
2018-11-02T12:57:47.921Z,4.77
2018-11-02T13:00:17.641Z,4.77
2018-11-02T13:02:46.815Z,4.83
2018-11-02T13:05:15.089Z,3.50
2018-11-02T13:07:43.567Z,8.60
2018-11-02T13:10:13.463Z,3.47
2018-11-02T13:12:41.813Z,4.43
2018-11-02T13:15:11.944Z,3.63
2018-11-02T13:17:41.047Z,6.43
2018-11-02T13:20:09.623Z,5.23
2018-11-02T13:22:38.327Z,4.50
2018-11-02T13:25:07.862Z,6.67
2018-11-02T13:27:36.187Z,5.40
2018-11-02T13:30:04.964Z,4.67
2018-11-02T13:32:33.200Z,4.20
2018-11-02T13:35:01.526Z,3.87
2018-11-02T13:37:29.833Z,4.23
2018-11-02T13:39:58.142Z,4.20
2018-11-02T13:42:26.428Z,4.77
2018-11-02T13:44:54.870Z,4.43
2018-11-02T13:47:23.146Z,4.67
2018-11-02T13:49:51.453Z,4.87
2018-11-02T13:52:19.727Z,4.97
2018-11-02T13:54:48.036Z,5.90
2018-11-02T13:57:16.326Z,6.50
2018-11-02T13:59:44.639Z,5.60
2018-11-02T14:02:12.928Z,6.57
2018-11-02T14:04:41.306Z,7.00
2018-11-02T14:07:09.735Z,4.90
2018-11-02T14:09:38.046Z,8.50
2018-11-02T14:12:06.349Z,4.27
2018-11-02T14:14:34.745Z,6.20
2018-11-02T14:17:03.050Z,4.77
2018-11-02T14:19:31.477Z,7.53
2018-11-02T14:21:59.540Z,4.30
2018-11-02T14:24:27.617Z,5.37
2018-11-02T14:26:55.688Z,4.93
2018-11-02T14:29:23.788Z,5.93
2018-11-02T14:31:51.820Z,6.20
2018-11-02T14:34:19.977Z,4.57
2018-11-02T14:36:48.129Z,5.63
2018-11-02T14:39:16.262Z,15.77
2018-11-02T14:41:44.869Z,5.63
2018-11-02T14:44:13.001Z,5.43
2018-11-02T14:46:41.246Z,6.30
2018-11-02T14:49:09.169Z,4.80
2018-11-02T14:51:37.252Z,4.93
2018-11-02T14:54:05.460Z,6.13
2018-11-02T14:56:33.570Z,6.80
2018-11-02T14:59:01.730Z,7.47
2018-11-02T15:01:29.997Z,6.60
2018-11-02T15:03:58.594Z,5.77
2018-11-02T15:06:26.664Z,5.47
2018-11-02T15:08:55.139Z,4.77
2018-11-02T15:11:23.245Z,9.40
2018-11-02T15:13:51.468Z,5.83
2018-11-02T15:16:19.568Z,7.67
2018-11-02T15:18:47.636Z,6.77
2018-11-02T15:21:15.660Z,5.80
2018-11-02T15:23:43.712Z,7.27
2018-11-02T15:26:11.804Z,5.93
2018-11-02T15:28:39.829Z,9.53
2018-11-02T15:31:07.979Z,9.07
2018-11-02T15:33:36.048Z,8.90
2018-11-02T15:36:04.097Z,7.23
2018-11-02T15:38:32.155Z,4.90
2018-11-02T15:41:00.245Z,7.20
2018-11-02T15:43:28.310Z,7.73
2018-11-02T15:45:56.373Z,9.03
2018-11-02T15:48:24.460Z,6.03
2018-11-02T15:50:52.554Z,5.40
2018-11-02T15:53:20.743Z,5.67
2018-11-02T15:55:48.714Z,8.57
2018-11-02T15:58:16.761Z,7.73
2018-11-02T16:00:44.931Z,17.93
2018-11-02T16:03:12.930Z,9.17
2018-11-02T16:05:41.011Z,8.00
2018-11-02T16:08:09.379Z,12.67
2018-11-02T16:10:37.718Z,9.13
2018-11-02T16:13:06.018Z,9.50
2018-11-02T16:15:34.579Z,9.03
2018-11-02T16:18:02.957Z,7.37
2018-11-02T16:20:31.298Z,7.63
2018-11-02T16:22:59.537Z,8.40
2018-11-02T16:25:27.889Z,7.03
2018-11-02T16:27:56.165Z,7.07
2018-11-02T16:30:24.510Z,7.13
2018-11-02T16:32:52.819Z,11.13
2018-11-02T16:35:21.149Z,9.83
2018-11-02T16:37:49.470Z,9.73
2018-11-02T16:40:17.784Z,10.37
2018-11-02T16:42:46.378Z,9.20
2018-11-02T16:45:15.224Z,9.03
2018-11-02T16:47:44.068Z,14.00
2018-11-02T16:50:13.429Z,17.17
2018-11-02T16:52:42.365Z,19.47
2018-11-02T16:55:10.930Z,14.00
2018-11-02T16:57:39.894Z,14.30
2018-11-02T17:00:10.487Z,11.37
2018-11-02T17:02:38.819Z,12.73
2018-11-02T17:05:07.775Z,6.63
2018-11-02T17:07:35.938Z,9.47
2018-11-02T17:10:04.468Z,9.57
2018-11-02T17:12:42.075Z,10.07
2018-11-02T17:15:11.360Z,11.37
2018-11-02T17:17:39.663Z,10.27
2018-11-02T17:20:15.473Z,15.70
2018-11-02T17:22:43.788Z,9.53
2018-11-02T17:25:12.829Z,7.03
2018-11-02T17:27:41.133Z,7.93
2018-11-02T17:30:12.433Z,9.03
2018-11-02T17:32:41.103Z,8.53
2018-11-02T17:35:10.169Z,10.67
2018-11-02T17:37:38.469Z,7.57
2018-11-02T17:40:08.633Z,10.20
2018-11-02T17:42:37.010Z,7.77
2018-11-02T17:45:06.321Z,11.00
2018-11-02T17:47:34.898Z,9.30
2018-11-02T17:50:04.173Z,8.93
2018-11-02T17:52:32.481Z,9.90
2018-11-02T17:55:00.760Z,13.93
2018-11-02T17:57:29.029Z,8.77
2018-11-02T17:59:58.355Z,10.30
2018-11-02T18:02:26.837Z,7.77
2018-11-02T18:04:55.411Z,7.83
2018-11-02T18:07:23.786Z,8.57
2018-11-02T18:09:52.097Z,8.00
2018-11-02T18:12:20.743Z,10.50
2018-11-02T18:14:51.918Z,7.63
2018-11-02T18:17:20.247Z,8.40
2018-11-02T18:19:48.593Z,6.77
2018-11-02T18:22:16.980Z,7.93
2018-11-02T18:24:45.427Z,7.43
2018-11-02T18:27:13.841Z,8.50
2018-11-02T18:29:42.164Z,8.23
2018-11-02T18:32:10.454Z,6.67
2018-11-02T18:34:38.790Z,9.00
2018-11-02T18:37:07.226Z,9.33
2018-11-02T18:39:35.506Z,8.60
2018-11-02T18:42:03.864Z,8.43
2018-11-02T18:44:32.217Z,9.00
2018-11-02T18:47:00.589Z,7.17
2018-11-02T18:49:28.917Z,11.43
2018-11-02T18:51:57.212Z,9.73
2018-11-02T18:54:25.505Z,8.73
2018-11-02T18:56:53.807Z,11.33
2018-11-02T18:59:22.153Z,8.50
2018-11-02T19:01:50.486Z,8.30
2018-11-02T19:04:19.000Z,8.53
2018-11-02T19:06:47.333Z,9.13
2018-11-02T19:09:15.657Z,11.57
2018-11-02T19:11:44.078Z,12.63
2018-11-02T19:14:12.420Z,8.60
2018-11-02T19:16:40.734Z,9.37
2018-11-02T19:19:09.047Z,10.47
2018-11-02T19:21:37.555Z,8.43
2018-11-02T19:24:05.904Z,13.57
2018-11-02T19:26:34.202Z,10.30
2018-11-02T19:29:02.517Z,10.30
2018-11-02T19:31:30.815Z,11.43
2018-11-02T19:33:59.252Z,12.53
2018-11-02T19:36:27.478Z,10.70
2018-11-02T19:38:55.783Z,11.60
2018-11-02T19:41:24.481Z,9.83
2018-11-02T19:43:52.891Z,12.03
2018-11-02T19:46:21.363Z,12.57
2018-11-02T19:48:49.882Z,14.27
2018-11-02T19:51:18.241Z,10.93
2018-11-02T19:53:46.776Z,9.73
2018-11-02T19:56:15.233Z,16.67
2018-11-02T19:58:43.572Z,13.23
2018-11-02T20:01:11.964Z,13.07
2018-11-02T20:03:40.198Z,12.57
2018-11-02T20:06:08.526Z,13.20
2018-11-02T20:08:36.808Z,12.73
2018-11-02T20:11:05.454Z,10.50
2018-11-02T20:13:33.826Z,10.63
2018-11-02T20:16:02.150Z,10.60
2018-11-02T20:18:30.457Z,11.93
2018-11-02T20:20:58.805Z,10.63
2018-11-02T20:23:33.474Z,11.37
2018-11-02T20:26:01.993Z,11.17
2018-11-02T20:28:30.327Z,13.63
2018-11-02T20:30:58.641Z,9.77
2018-11-02T20:33:26.929Z,11.80
2018-11-02T20:35:55.221Z,9.67
2018-11-02T20:38:23.531Z,10.77
2018-11-02T20:40:51.905Z,10.60
2018-11-02T20:43:20.442Z,11.90
2018-11-02T20:45:48.756Z,10.60
2018-11-02T20:48:17.045Z,12.07
2018-11-02T20:50:45.476Z,10.23
2018-11-02T20:53:13.810Z,11.43
2018-11-02T20:55:42.333Z,10.00
2018-11-02T20:58:10.742Z,10.40
2018-11-02T21:00:39.095Z,9.63
2018-11-02T21:03:07.446Z,10.30
2018-11-02T21:05:35.762Z,9.67
2018-11-02T21:08:04.138Z,9.77
2018-11-02T21:10:32.434Z,10.47
2018-11-02T21:13:00.872Z,10.33
2018-11-02T21:15:29.259Z,10.53
2018-11-02T21:17:57.625Z,12.13
2018-11-02T21:20:26.781Z,11.60
2018-11-02T21:22:55.268Z,13.37
2018-11-02T21:25:23.717Z,11.97
2018-11-02T21:27:52.161Z,10.67
2018-11-02T21:30:21.941Z,11.03
2018-11-02T21:32:50.943Z,11.73
2018-11-02T21:35:20.624Z,11.53
2018-11-02T21:37:49.384Z,12.00
2018-11-02T21:40:19.076Z,11.23
2018-11-02T21:42:47.424Z,12.30
2018-11-02T21:45:17.062Z,13.17
2018-11-02T21:47:46.022Z,11.77
2018-11-02T21:50:14.706Z,12.97
2018-11-02T21:52:43.292Z,12.43
2018-11-02T21:55:11.745Z,12.43
2018-11-02T21:57:40.220Z,12.70
2018-11-02T22:00:15.451Z,13.13
2018-11-02T22:02:44.219Z,12.67
2018-11-02T22:05:13.174Z,12.57
2018-11-02T22:07:42.682Z,11.80
2018-11-02T22:10:11.990Z,13.17
2018-11-02T22:12:40.359Z,12.47
2018-11-02T22:15:09.362Z,13.73
2018-11-02T22:17:37.829Z,13.10
2018-11-02T22:20:07.887Z,13.47
2018-11-02T22:22:36.296Z,13.67
2018-11-02T22:25:05.278Z,14.63
2018-11-02T22:27:33.686Z,16.13
2018-11-02T22:30:01.989Z,15.00
2018-11-02T22:32:30.307Z,14.70
2018-11-02T22:34:58.666Z,14.20
2018-11-02T22:37:27.034Z,15.83
2018-11-02T22:39:55.374Z,15.57
2018-11-02T22:42:23.703Z,15.70
2018-11-02T22:44:52.038Z,14.97
2018-11-02T22:47:20.414Z,18.00
2018-11-02T22:49:48.689Z,15.73
2018-11-02T22:52:17.111Z,15.30
2018-11-02T22:54:45.525Z,16.87
2018-11-02T22:57:13.805Z,15.10
2018-11-02T22:59:42.383Z,15.60
2018-11-02T23:02:10.899Z,16.20
2018-11-02T23:04:39.401Z,19.33
2018-11-02T23:07:07.790Z,16.63
2018-11-02T23:09:36.181Z,17.67
2018-11-02T23:12:04.507Z,16.90
2018-11-02T23:14:32.891Z,17.80
2018-11-02T23:17:01.340Z,18.37
2018-11-02T23:19:29.848Z,18.60
2018-11-02T23:21:58.059Z,18.40
2018-11-02T23:24:27.142Z,19.07
2018-11-02T23:26:55.617Z,20.00
2018-11-02T23:29:23.993Z,19.03
2018-11-02T23:31:52.357Z,19.63
2018-11-02T23:34:20.752Z,18.23
2018-11-02T23:36:49.025Z,18.57
2018-11-02T23:39:17.374Z,18.60
2018-11-02T23:41:45.725Z,18.50
2018-11-02T23:44:14.231Z,17.67
2018-11-02T23:46:43.388Z,18.93
2018-11-02T23:49:11.733Z,17.87
2018-11-02T23:51:40.034Z,18.53
2018-11-02T23:54:08.393Z,19.27
2018-11-02T23:56:36.709Z,18.40
2018-11-02T23:59:05.349Z,20.17
